Time;durP1;ratioP1;P1;durP2;ratioP2;P2;SDS_P1;SDS_P2;PMS_P1;PMS_P2;Temp;Humidity;BMP_temperature;BMP_pressure;BME280_temperature;BME280_humidity;BME280_pressure;Samples;Min_cycle;Max_cycle;Signal;HPM_P1;HPM_P2
2022/12/18 00:02:26;;;;;;;10.40;5.90;;;-4.00;99.90;;;;;;5028562;28;20946;-61
2022/12/18 00:04:54;;;;;;;9.83;6.10;;;-4.10;99.90;;;;;;5024356;28;20501;-60
2022/12/18 00:07:21;;;;;;;8.57;6.63;;;-4.10;99.90;;;;;;5020180;28;20464;-61
2022/12/18 00:09:48;;;;;;;10.27;6.77;;;-4.10;99.90;;;;;;5027272;28;20492;-63
2022/12/18 00:12:16;;;;;;;9.23;5.90;;;-4.10;99.90;;;;;;5040273;28;20471;-63
2022/12/18 00:14:46;;;;;;;8.50;5.90;;;-4.20;99.90;;;;;;5039540;28;20496;-63
2022/12/18 00:17:13;;;;;;;8.20;5.40;;;-4.10;99.90;;;;;;5040341;28;20484;-63
2022/12/18 00:19:40;;;;;;;9.73;6.17;;;-4.00;99.90;;;;;;5039096;28;20470;-63
2022/12/18 00:22:09;;;;;;;8.90;5.03;;;-4.00;99.90;;;;;;5039397;28;20465;-60
2022/12/18 00:24:36;;;;;;;10.80;5.37;;;-4.00;99.90;;;;;;5039788;28;20551;-60
2022/12/18 00:27:03;;;;;;;7.53;5.87;;;-3.80;99.90;;;;;;5037616;28;20469;-62
2022/12/18 00:29:30;;;;;;;6.77;5.20;;;-3.80;99.90;;;;;;5029098;28;20792;-63
2022/12/18 00:31:58;;;;;;;10.23;5.83;;;-3.70;99.90;;;;;;5019374;28;20474;-62
2022/12/18 00:34:25;;;;;;;9.70;5.47;;;-3.70;99.90;;;;;;5019176;28;20472;-60
2022/12/18 00:36:53;;;;;;;8.97;5.87;;;-3.80;99.90;;;;;;5020023;28;20578;-62
2022/12/18 00:39:22;;;;;;;8.73;5.20;;;-3.90;99.90;;;;;;5039178;28;20463;-61
2022/12/18 00:44:33;;;;;;;9.73;5.33;;;-3.90;99.90;;;;;;5019189;28;20574;-63
2022/12/18 00:47:01;;;;;;;8.20;5.30;;;-3.90;99.90;;;;;;5019810;28;20467;-63
2022/12/18 00:49:28;;;;;;;10.87;6.27;;;-3.80;99.90;;;;;;5021162;28;20470;-61
2022/12/18 00:51:55;;;;;;;9.30;6.10;;;-3.80;99.90;;;;;;5038785;28;20562;-62
2022/12/18 00:54:24;;;;;;;9.73;6.30;;;-3.80;99.90;;;;;;5038924;28;20466;-63
2022/12/18 00:56:51;;;;;;;8.87;5.40;;;-3.80;99.90;;;;;;5038964;28;20515;-62
2022/12/18 00:59:19;;;;;;;8.60;5.40;;;-3.80;99.90;;;;;;5038800;28;20959;-62
2022/12/18 01:01:47;;;;;;;8.03;5.33;;;-3.80;99.90;;;;;;5038895;28;20498;-61
2022/12/18 01:04:14;;;;;;;13.67;5.90;;;-3.80;99.90;;;;;;5039678;28;20524;-62
2022/12/18 01:06:42;;;;;;;8.53;5.70;;;-3.90;99.90;;;;;;5039761;28;20558;-62
2022/12/18 01:09:09;;;;;;;9.67;4.93;;;-3.80;99.90;;;;;;5039427;28;20556;-63
2022/12/18 01:11:38;;;;;;;15.83;6.47;;;-3.80;99.90;;;;;;5039254;28;20469;-63
2022/12/18 01:14:05;;;;;;;8.30;5.80;;;-3.80;99.90;;;;;;5025578;28;20505;-63
2022/12/18 01:16:33;;;;;;;10.20;6.30;;;-3.80;99.90;;;;;;5035653;28;20474;-63
2022/12/18 01:19:00;;;;;;;8.70;5.97;;;-3.80;99.90;;;;;;5039338;28;20498;-63
2022/12/18 01:21:27;;;;;;;11.83;6.27;;;-3.80;99.90;;;;;;5039405;28;20558;-63
2022/12/18 01:23:56;;;;;;;8.17;6.27;;;-3.80;99.90;;;;;;5038568;28;20448;-63
2022/12/18 01:26:23;;;;;;;9.50;5.57;;;-3.90;99.90;;;;;;5038961;28;20473;-62
2022/12/18 01:28:52;;;;;;;10.93;5.97;;;-3.80;99.90;;;;;;5038726;28;20949;-62
2022/12/18 01:31:21;;;;;;;9.90;5.57;;;-3.90;99.90;;;;;;5038515;28;20489;-63
2022/12/18 01:33:52;;;;;;;9.87;5.80;;;-4.00;99.90;;;;;;5038978;28;20478;-62
2022/12/18 01:36:21;;;;;;;8.03;5.37;;;-4.10;99.90;;;;;;5038494;28;20466;-62
2022/12/18 01:38:49;;;;;;;8.67;6.30;;;-4.20;99.90;;;;;;5035935;28;20476;-62
2022/12/18 01:41:18;;;;;;;8.53;6.53;;;-4.10;99.90;;;;;;5026032;28;20496;-62
2022/12/18 01:43:49;;;;;;;11.10;7.43;;;-4.20;99.90;;;;;;5018971;28;20919;-62
2022/12/18 01:46:19;;;;;;;10.67;6.23;;;-4.40;99.90;;;;;;5018256;28;20474;-62
2022/12/18 01:48:48;;;;;;;11.03;6.67;;;-4.40;99.90;;;;;;5022935;28;20487;-62
2022/12/18 01:51:16;;;;;;;8.50;5.53;;;-4.50;99.90;;;;;;5030578;28;20558;-62
2022/12/18 01:53:44;;;;;;;7.80;5.77;;;-4.60;99.90;;;;;;5018987;28;20892;-62
2022/12/18 01:56:15;;;;;;;8.33;6.03;;;-4.60;99.90;;;;;;5018937;28;20466;-61
2022/12/18 01:58:49;;;;;;;7.20;5.13;;;-4.60;99.90;;;;;;5018461;28;20470;-61
2022/12/18 02:01:18;;;;;;;7.73;5.70;;;-4.70;99.90;;;;;;5038856;28;20469;-61
2022/12/18 02:03:46;;;;;;;8.77;5.30;;;-4.70;99.90;;;;;;5037043;28;20500;-62
2022/12/18 02:06:18;;;;;;;7.87;5.63;;;-4.60;99.90;;;;;;5038149;28;20494;-61
2022/12/18 02:09:08;;;;;;;11.40;6.10;;;-4.60;1.00;;;;;;5036371;28;20518;-62
2022/12/18 02:11:48;;;;;;;9.40;6.20;;;-4.50;1.00;;;;;;5038615;28;20898;-62
2022/12/18 02:14:24;;;;;;;7.30;5.10;;;-4.40;1.00;;;;;;5018528;28;20817;-62
2022/12/18 02:17:00;;;;;;;8.50;6.27;;;-4.40;1.00;;;;;;5018648;28;20949;-62
2022/12/18 02:19:56;;;;;;;9.67;6.00;;;-4.40;99.90;;;;;;5018185;28;20470;-62
2022/12/18 02:22:33;;;;;;;12.83;6.27;;;-4.50;99.90;;;;;;5018556;28;20777;-62
2022/12/18 02:25:12;;;;;;;9.30;6.40;;;-4.50;99.90;;;;;;5020498;28;20558;-61
2022/12/18 02:27:43;;;;;;;10.07;6.93;;;-4.60;99.90;;;;;;5018100;28;20469;-62
2022/12/18 02:30:11;;;;;;;11.90;6.23;;;-4.60;99.90;;;;;;5017366;28;20500;-62
2022/12/18 02:32:43;;;;;;;8.37;6.57;;;-4.60;99.90;;;;;;5017330;28;20470;-63
2022/12/18 02:35:14;;;;;;;9.40;6.10;;;-4.60;1.00;;;;;;5017340;28;20470;-62
2022/12/18 02:37:44;;;;;;;8.27;6.17;;;-4.60;1.00;;;;;;5017406;28;20504;-62
2022/12/18 02:40:12;;;;;;;9.40;5.83;;;-4.60;1.00;;;;;;5017697;28;20776;-62
2022/12/18 02:42:41;;;;;;;8.80;6.40;;;-4.70;1.00;;;;;;5017480;28;20465;-61
2022/12/18 02:45:08;;;;;;;12.47;6.77;;;-4.70;1.00;;;;;;5053166;28;20559;-61
2022/12/18 02:47:39;;;;;;;9.00;6.40;;;-4.80;1.00;;;;;;5057517;28;20459;-61
2022/12/18 02:50:14;;;;;;;9.67;6.20;;;-5.00;1.00;;;;;;5057534;28;20499;-62
2022/12/18 02:52:51;;;;;;;7.93;5.57;;;-4.90;1.00;;;;;;5057290;28;20459;-61
2022/12/18 02:55:29;;;;;;;9.77;6.47;;;-4.90;1.00;;;;;;5057500;28;20526;-62
2022/12/18 02:58:04;;;;;;;11.40;6.67;;;-5.00;1.00;;;;;;5031976;28;20746;-61
2022/12/18 03:00:36;;;;;;;9.27;6.00;;;-4.90;1.00;;;;;;5038128;28;20488;-62
2022/12/18 03:03:11;;;;;;;10.03;6.63;;;-5.00;1.00;;;;;;5041655;28;20465;-62
2022/12/18 03:05:42;;;;;;;9.43;6.43;;;-5.00;1.00;;;;;;5040799;28;20830;-63
2022/12/18 03:08:14;;;;;;;9.77;6.20;;;-5.10;1.00;;;;;;5029061;28;20465;-57
2022/12/18 03:10:47;;;;;;;8.87;5.93;;;-5.10;1.00;;;;;;5021132;28;20791;-61
2022/12/18 03:13:20;;;;;;;9.30;5.10;;;-5.40;1.00;;;;;;5038150;28;20471;-60
2022/12/18 03:15:50;;;;;;;12.07;6.37;;;-5.30;1.00;;;;;;5040279;28;20547;-60
2022/12/18 03:18:22;;;;;;;8.40;5.33;;;-5.30;1.00;;;;;;5040025;28;20475;-60
2022/12/18 03:20:53;;;;;;;11.03;7.00;;;-5.40;1.00;;;;;;5039606;28;20460;-63
2022/12/18 03:23:25;;;;;;;11.90;6.67;;;-5.30;1.00;;;;;;5040603;28;20753;-63
2022/12/18 03:25:56;;;;;;;8.97;6.00;;;-5.50;1.00;;;;;;5040129;28;20469;-62
2022/12/18 03:28:25;;;;;;;9.03;6.63;;;-5.50;1.00;;;;;;5023700;28;20497;-62
2022/12/18 03:30:58;;;;;;;9.87;5.90;;;-5.50;1.00;;;;;;5022990;28;20493;-62
2022/12/18 03:33:29;;;;;;;13.37;7.40;;;-5.50;1.00;;;;;;5022487;28;20464;-59
2022/12/18 03:35:57;;;;;;;9.87;6.17;;;-5.40;1.00;;;;;;5022429;28;20491;-62
2022/12/18 03:38:24;;;;;;;10.70;6.70;;;-5.30;1.00;;;;;;5030981;28;20463;-62
2022/12/18 03:41:00;;;;;;;10.87;6.97;;;-5.30;1.00;;;;;;5024703;28;20897;-62
2022/12/18 03:43:37;;;;;;;8.03;6.23;;;-5.40;1.00;;;;;;5022799;28;20558;-62
2022/12/18 03:46:07;;;;;;;12.23;6.20;;;-5.30;1.00;;;;;;5022763;28;20561;-62
2022/12/18 03:48:39;;;;;;;11.80;6.20;;;-5.20;1.00;;;;;;5022344;28;20568;-62
2022/12/18 03:51:11;;;;;;;9.63;6.30;;;-5.20;1.00;;;;;;5036107;28;20553;-62
2022/12/18 03:53:45;;;;;;;8.37;6.57;;;-5.30;1.00;;;;;;5042676;28;20594;-62
2022/12/18 03:56:14;;;;;;;10.27;6.80;;;-5.40;1.00;;;;;;5039853;28;20531;-62
2022/12/18 03:58:45;;;;;;;9.77;6.30;;;-5.40;1.00;;;;;;5033077;28;20784;-62
2022/12/18 04:01:16;;;;;;;8.80;5.90;;;-5.40;1.00;;;;;;5022789;28;20726;-62
2022/12/18 04:03:45;;;;;;;10.33;6.83;;;-5.30;1.00;;;;;;5021885;28;20502;-62
2022/12/18 04:06:14;;;;;;;14.73;6.00;;;-5.40;1.00;;;;;;5023326;28;20577;-62
2022/12/18 04:08:42;;;;;;;9.90;5.63;;;-5.30;1.00;;;;;;5042235;28;20477;-62
2022/12/18 04:11:09;;;;;;;11.33;6.57;;;-5.20;1.00;;;;;;5034067;28;20899;-62
2022/12/18 04:13:38;;;;;;;9.47;6.30;;;-4.90;1.00;;;;;;5021564;28;20470;-62
2022/12/18 04:16:09;;;;;;;9.77;6.87;;;-4.80;1.00;;;;;;5021998;28;20559;-62
2022/12/18 04:18:36;;;;;;;8.40;5.90;;;-4.80;1.00;;;;;;5022006;28;20458;-62
2022/12/18 04:21:04;;;;;;;12.70;7.77;;;-4.90;1.00;;;;;;5024063;28;20461;-62
2022/12/18 04:23:31;;;;;;;10.10;5.83;;;-4.80;1.00;;;;;;5041453;28;20472;-62
2022/12/18 04:25:58;;;;;;;9.60;6.40;;;-4.90;1.00;;;;;;5041035;28;20929;-62
2022/12/18 04:28:26;;;;;;;10.73;6.93;;;-4.90;1.00;;;;;;5039895;28;20775;-62
2022/12/18 04:30:53;;;;;;;11.07;5.70;;;-4.90;1.00;;;;;;5023374;28;21061;-63
2022/12/18 04:33:21;;;;;;;10.50;6.80;;;-5.00;1.00;;;;;;5020497;28;20879;-62
2022/12/18 04:35:49;;;;;;;9.77;5.80;;;-5.00;1.00;;;;;;5019912;28;20468;-62
2022/12/18 04:38:16;;;;;;;7.97;6.03;;;-5.10;1.00;;;;;;5027061;28;20553;-61
2022/12/18 04:40:44;;;;;;;7.93;5.20;;;-5.10;1.00;;;;;;5040992;28;20487;-62
2022/12/18 04:43:11;;;;;;;7.37;5.60;;;-5.10;1.00;;;;;;5028216;28;20896;-62
2022/12/18 04:45:38;;;;;;;10.20;5.30;;;-4.90;1.00;;;;;;5020490;28;20472;-62
2022/12/18 04:48:06;;;;;;;9.90;5.90;;;-4.80;1.00;;;;;;5021506;28;20560;-62
2022/12/18 04:50:34;;;;;;;7.23;4.47;;;-4.90;1.00;;;;;;5039945;28;20530;-62
2022/12/18 04:53:02;;;;;;;9.17;5.93;;;-4.90;1.00;;;;;;5033160;28;20556;-62
2022/12/18 04:55:29;;;;;;;8.13;5.37;;;-4.90;1.00;;;;;;5020371;28;20466;-62
2022/12/18 04:57:56;;;;;;;11.40;5.30;;;-4.90;1.00;;;;;;5019915;28;20527;-62
2022/12/18 05:00:23;;;;;;;8.40;5.40;;;-4.80;1.00;;;;;;5036250;28;20482;-62
2022/12/18 05:02:51;;;;;;;9.33;6.00;;;-4.80;1.00;;;;;;5020156;28;20498;-60
2022/12/18 05:05:18;;;;;;;12.50;7.20;;;-4.90;1.00;;;;;;5019261;28;20495;-62
2022/12/18 05:07:47;;;;;;;11.43;9.73;;;-4.90;1.00;;;;;;5019618;28;20545;-62
2022/12/18 05:10:14;;;;;;;13.60;11.43;;;-4.90;1.00;;;;;;5018507;28;20492;-62
2022/12/18 05:15:22;;;;;;;11.10;8.80;;;-4.80;1.00;;;;;;5018587;28;20872;-62
2022/12/18 05:17:49;;;;;;;8.80;6.77;;;-4.70;1.00;;;;;;5018728;28;20950;-62
2022/12/18 05:20:18;;;;;;;10.47;6.63;;;-4.70;1.00;;;;;;5020569;28;20875;-62
2022/12/18 05:22:46;;;;;;;7.70;5.13;;;-4.80;1.00;;;;;;5025365;28;20469;-62
2022/12/18 05:25:13;;;;;;;7.83;5.40;;;-4.80;1.00;;;;;;5039547;28;20551;-62
2022/12/18 05:27:41;;;;;;;8.63;6.17;;;-4.70;1.00;;;;;;5039760;28;20515;-62
2022/12/18 05:30:09;;;;;;;8.40;5.83;;;-4.60;1.00;;;;;;5036557;28;20579;-62
2022/12/18 05:32:36;;;;;;;7.80;5.43;;;-4.70;1.00;;;;;;5024767;28;20471;-61
2022/12/18 05:35:04;;;;;;;7.50;4.90;;;-4.60;1.00;;;;;;5019595;28;20467;-62
2022/12/18 05:37:31;;;;;;;10.77;5.60;;;-4.60;1.00;;;;;;5019584;28;20464;-62
2022/12/18 05:40:00;;;;;;;10.53;5.87;;;-4.70;1.00;;;;;;5023049;28;20470;-62
2022/12/18 05:42:27;;;;;;;9.00;5.60;;;-4.70;1.00;;;;;;5039219;28;20501;-62
2022/12/18 05:44:54;;;;;;;8.77;5.30;;;-4.50;1.00;;;;;;5028769;28;20467;-62
2022/12/18 05:47:21;;;;;;;7.13;5.00;;;-4.50;1.00;;;;;;5019335;28;20476;-62
2022/12/18 05:49:49;;;;;;;9.33;4.67;;;-4.50;1.00;;;;;;5018338;28;20743;-62
2022/12/18 05:52:16;;;;;;;11.30;6.57;;;-4.60;1.00;;;;;;5034819;28;20466;-62
2022/12/18 05:54:43;;;;;;;10.90;6.40;;;-4.70;1.00;;;;;;5019166;28;20888;-62
2022/12/18 05:57:12;;;;;;;7.13;5.00;;;-4.60;1.00;;;;;;5019118;28;20556;-62
2022/12/18 05:59:39;;;;;;;8.80;5.63;;;-4.60;1.00;;;;;;5018810;28;20483;-62
2022/12/18 06:02:06;;;;;;;6.53;5.50;;;-4.70;1.00;;;;;;5019256;28;20440;-62
2022/12/18 06:04:33;;;;;;;9.40;6.10;;;-4.60;1.00;;;;;;5018327;28;20811;-62
2022/12/18 06:07:03;;;;;;;8.03;5.43;;;-4.50;1.00;;;;;;5035848;28;20565;-61
2022/12/18 06:09:30;;;;;;;8.13;5.40;;;-4.40;1.00;;;;;;5034316;28;20833;-61
2022/12/18 06:11:58;;;;;;;8.37;5.30;;;-4.30;1.00;;;;;;5034319;28;20579;-62
2022/12/18 06:14:26;;;;;;;8.83;5.30;;;-4.50;1.00;;;;;;5035956;28;20472;-60
2022/12/18 06:16:54;;;;;;;7.90;5.23;;;-4.50;1.00;;;;;;5020737;28;20554;-62
2022/12/18 06:19:21;;;;;;;12.60;7.27;;;-4.70;1.00;;;;;;5015605;28;20615;-59
2022/12/18 06:21:49;;;;;;;9.10;5.73;;;-4.50;1.00;;;;;;5016813;28;20525;-61
2022/12/18 06:24:16;;;;;;;7.40;4.80;;;-4.40;1.00;;;;;;5024354;28;20766;-62
2022/12/18 06:26:43;;;;;;;7.70;5.53;;;-4.40;1.00;;;;;;5036434;28;20473;-62
2022/12/18 06:29:10;;;;;;;8.50;5.47;;;-4.50;1.00;;;;;;5035592;28;20472;-62
2022/12/18 06:31:39;;;;;;;7.80;5.67;;;-4.40;1.00;;;;;;5036133;28;20554;-63
2022/12/18 06:34:06;;;;;;;9.20;5.03;;;-4.20;99.90;;;;;;5015966;28;20471;-62
2022/12/18 06:36:33;;;;;;;10.87;6.73;;;-4.30;99.90;;;;;;5016489;28;20472;-62
2022/12/18 06:39:00;;;;;;;11.77;6.17;;;-4.30;99.90;;;;;;5016042;28;20471;-62
2022/12/18 06:41:28;;;;;;;10.10;6.13;;;-4.30;99.90;;;;;;5016519;28;20500;-62
2022/12/18 06:43:55;;;;;;;9.87;6.37;;;-4.40;99.90;;;;;;5030384;28;20477;-60
2022/12/18 06:46:22;;;;;;;11.87;6.40;;;-4.20;99.90;;;;;;5037205;28;20466;-60
2022/12/18 06:48:52;;;;;;;9.63;6.03;;;-4.00;99.90;;;;;;5018616;28;20890;-61
2022/12/18 06:51:20;;;;;;;9.90;5.50;;;-3.80;99.90;;;;;;5017382;28;20489;-62
2022/12/18 06:53:47;;;;;;;11.03;8.00;;;-3.80;99.90;;;;;;5025540;28;20473;-62
2022/12/18 06:56:15;;;;;;;12.13;7.33;;;-3.70;99.90;;;;;;5025846;28;20993;-62
2022/12/18 06:58:42;;;;;;;7.90;5.70;;;-3.60;99.90;;;;;;5018824;28;20534;-63
2022/12/18 07:01:12;;;;;;;9.80;6.90;;;-3.60;99.90;;;;;;5018365;28;20465;-63
2022/12/18 07:03:40;;;;;;;10.07;6.43;;;-3.60;99.90;;;;;;5021435;28;20469;-63
2022/12/18 07:06:15;;;;;;;9.20;6.53;;;-3.60;99.90;;;;;;5037831;28;20496;-63
2022/12/18 07:08:42;;;;;;;10.70;6.73;;;-3.70;99.90;;;;;;5027908;28;20476;-63
2022/12/18 07:11:10;;;;;;;10.27;6.37;;;-3.60;99.90;;;;;;5018831;28;20553;-63
2022/12/18 07:13:37;;;;;;;8.70;5.70;;;-3.60;99.90;;;;;;5018172;28;20494;-62
2022/12/18 07:16:07;;;;;;;11.63;6.57;;;-3.50;99.90;;;;;;5018014;28;20463;-63
2022/12/18 07:18:34;;;;;;;11.50;7.33;;;-3.50;99.90;;;;;;5022908;28;20538;-63
2022/12/18 07:21:04;;;;;;;8.50;5.57;;;-3.50;99.90;;;;;;5038426;28;20463;-63
2022/12/18 07:23:34;;;;;;;12.60;7.30;;;-3.40;99.90;;;;;;5038482;28;20466;-61
2022/12/18 07:26:03;;;;;;;8.23;5.50;;;-3.30;99.90;;;;;;5037774;28;20474;-63
2022/12/18 07:28:30;;;;;;;10.00;6.23;;;-3.30;99.90;;;;;;5037636;28;20466;-62
2022/12/18 07:30:58;;;;;;;10.03;5.70;;;-3.20;99.90;;;;;;5037571;28;20491;-62
2022/12/18 07:33:26;;;;;;;10.10;6.40;;;-3.30;99.90;;;;;;5037883;28;20516;-63
2022/12/18 07:35:53;;;;;;;9.07;5.87;;;-3.20;99.90;;;;;;5038156;28;20545;-63
2022/12/18 07:38:20;;;;;;;8.77;5.80;;;-3.10;99.90;;;;;;5038149;28;20462;-63
2022/12/18 07:40:48;;;;;;;11.30;6.70;;;-3.00;99.90;;;;;;5036184;28;20466;-63
2022/12/18 07:43:16;;;;;;;6.60;5.07;;;-2.90;99.90;;;;;;5037173;28;20507;-62
2022/12/18 07:45:43;;;;;;;8.40;5.40;;;-2.90;99.90;;;;;;5039711;28;20467;-63
2022/12/18 07:48:11;;;;;;;9.80;5.50;;;-2.80;99.90;;;;;;5041491;28;20813;-63
2022/12/18 07:50:38;;;;;;;9.33;5.43;;;-2.70;99.90;;;;;;5040647;28;20472;-63
2022/12/18 07:53:05;;;;;;;13.10;6.00;;;-2.60;99.90;;;;;;5041062;28;20568;-62
2022/12/18 07:55:33;;;;;;;7.43;4.87;;;-2.50;99.90;;;;;;5041366;28;20471;-63
2022/12/18 07:58:03;;;;;;;7.87;5.40;;;-2.40;99.90;;;;;;5041184;28;20473;-62
2022/12/18 08:00:31;;;;;;;10.63;5.57;;;-2.30;99.90;;;;;;5041162;28;20448;-63
2022/12/18 08:02:59;;;;;;;8.87;5.50;;;-2.20;99.90;;;;;;5041026;28;20841;-63
2022/12/18 08:05:26;;;;;;;7.33;4.83;;;-2.10;99.90;;;;;;5040397;28;20500;-64
2022/12/18 08:07:54;;;;;;;8.40;5.23;;;-2.00;99.90;;;;;;5032612;28;20503;-64
2022/12/18 08:10:22;;;;;;;8.37;5.47;;;-1.80;99.90;;;;;;5023539;28;20487;-63
2022/12/18 08:12:51;;;;;;;9.17;5.67;;;-1.70;99.90;;;;;;5021276;28;20674;-64
2022/12/18 08:15:19;;;;;;;6.60;4.93;;;-1.50;99.90;;;;;;5021145;28;20562;-64
2022/12/18 08:17:46;;;;;;;9.10;5.23;;;-1.50;99.90;;;;;;5020183;28;20464;-64
2022/12/18 08:20:14;;;;;;;7.10;5.50;;;-1.40;99.90;;;;;;5020744;28;20476;-64
2022/12/18 08:22:42;;;;;;;10.37;5.53;;;-1.40;99.90;;;;;;5020769;28;20751;-64
2022/12/18 08:25:09;;;;;;;7.37;4.63;;;-1.40;99.90;;;;;;5020527;28;20464;-64
2022/12/18 08:27:37;;;;;;;10.40;6.13;;;-1.30;99.90;;;;;;5025597;28;20469;-64
2022/12/18 08:30:05;;;;;;;7.77;5.40;;;-1.20;99.90;;;;;;5024552;28;20563;-64
2022/12/18 08:32:34;;;;;;;10.50;6.23;;;-1.00;99.90;;;;;;5019940;28;20492;-62
2022/12/18 08:35:01;;;;;;;7.43;5.80;;;-0.80;99.90;;;;;;5020937;28;20565;-63
2022/12/18 08:37:28;;;;;;;8.43;5.50;;;-0.70;99.90;;;;;;5021334;28;20520;-63
2022/12/18 08:39:55;;;;;;;8.70;5.00;;;-0.60;99.90;;;;;;5020760;28;20860;-62
2022/12/18 08:45:09;;;;;;;6.30;5.03;;;-0.30;99.90;;;;;;5040315;28;20438;-63
2022/12/18 08:47:37;;;;;;;7.77;5.50;;;-0.20;99.90;;;;;;5040528;28;20465;-62
2022/12/18 08:50:05;;;;;;;7.43;4.57;;;-0.20;99.90;;;;;;5040132;28;20471;-63
2022/12/18 08:52:33;;;;;;;7.10;4.80;;;-0.10;99.90;;;;;;5039560;28;20500;-64
2022/12/18 08:55:00;;;;;;;9.77;4.70;;;0.00;99.90;;;;;;5024295;28;20559;-63
2022/12/18 08:57:27;;;;;;;8.13;5.30;;;0.10;99.90;;;;;;5019093;28;20471;-64
2022/12/18 08:59:55;;;;;;;7.60;5.23;;;0.20;99.90;;;;;;5019104;28;20474;-64
2022/12/18 09:02:22;;;;;;;8.80;5.50;;;0.30;99.90;;;;;;5019427;28;20821;-64
2022/12/18 09:04:51;;;;;;;6.17;4.47;;;0.40;99.90;;;;;;5018119;28;20494;-65
2022/12/18 09:07:18;;;;;;;7.23;5.10;;;0.50;99.90;;;;;;5019727;28;20536;-65
2022/12/18 09:09:45;;;;;;;7.60;4.77;;;0.50;99.90;;;;;;5018782;28;20976;-65
2022/12/18 09:12:12;;;;;;;5.70;4.57;;;0.60;99.90;;;;;;5017970;28;20583;-65
2022/12/18 09:14:40;;;;;;;8.80;4.97;;;0.60;99.90;;;;;;5017694;28;20565;-65
2022/12/18 09:17:07;;;;;;;6.87;4.80;;;0.70;99.90;;;;;;5017149;28;20845;-65
2022/12/18 09:19:34;;;;;;;7.13;4.87;;;0.70;99.90;;;;;;5017782;28;20465;-65
2022/12/18 09:22:03;;;;;;;8.30;5.17;;;0.70;99.90;;;;;;5017119;28;20576;-66
2022/12/18 09:24:30;;;;;;;5.77;4.50;;;0.70;99.90;;;;;;5017145;28;20464;-65
2022/12/18 09:26:57;;;;;;;7.40;5.60;;;0.80;99.90;;;;;;5025163;28;20595;-66
2022/12/18 09:29:24;;;;;;;5.50;4.30;;;0.80;99.90;;;;;;5023289;28;20456;-65
2022/12/18 09:31:52;;;;;;;7.87;5.07;;;0.80;99.90;;;;;;5018760;28;20497;-65
2022/12/18 09:34:20;;;;;;;6.83;4.43;;;0.90;99.90;;;;;;5022714;28;20485;-66
2022/12/18 09:36:47;;;;;;;5.90;4.30;;;1.00;99.90;;;;;;5018301;28;20435;-66
2022/12/18 09:39:19;;;;;;;7.00;4.53;;;1.10;99.90;;;;;;5024490;28;20493;-65
2022/12/18 09:41:53;;;;;;;7.20;5.00;;;1.40;99.90;;;;;;5037978;28;20492;-64
2022/12/18 09:44:27;;;;;;;6.23;3.93;;;1.60;99.90;;;;;;5038038;28;20555;-66
2022/12/18 09:47:08;;;;;;;5.13;3.93;;;1.70;99.90;;;;;;5018588;28;20556;-65
2022/12/18 09:49:37;;;;;;;7.40;4.10;;;1.70;99.90;;;;;;5017647;28;20465;-65
2022/12/18 09:52:10;;;;;;;4.90;3.33;;;1.70;99.90;;;;;;5018084;28;20939;-66
2022/12/18 09:54:44;;;;;;;7.13;3.90;;;1.80;99.90;;;;;;5024024;28;20470;-66
2022/12/18 09:57:15;;;;;;;7.57;4.47;;;1.90;99.90;;;;;;5038693;28;20462;-66
2022/12/18 09:59:47;;;;;;;8.40;4.60;;;1.90;99.90;;;;;;5038338;28;20489;-65
2022/12/18 10:02:17;;;;;;;7.37;4.00;;;1.80;99.90;;;;;;5037992;28;20718;-66
2022/12/18 10:04:45;;;;;;;5.93;4.03;;;1.80;99.90;;;;;;5036958;28;20961;-65
2022/12/18 10:07:20;;;;;;;6.00;3.90;;;1.90;99.90;;;;;;5036731;28;20834;-65
2022/12/18 10:09:57;;;;;;;8.67;4.80;;;1.80;99.90;;;;;;5036310;28;20555;-65
2022/12/18 10:12:32;;;;;;;6.90;4.43;;;1.90;99.90;;;;;;5036864;28;20564;-65
2022/12/18 10:15:06;;;;;;;5.73;3.63;;;1.90;99.90;;;;;;5036891;28;20754;-65
2022/12/18 10:17:43;;;;;;;7.47;5.57;;;1.90;99.90;;;;;;5037324;28;20470;-65
2022/12/18 10:20:16;;;;;;;8.07;4.40;;;1.90;99.90;;;;;;5037241;28;20913;-66
2022/12/18 10:22:53;;;;;;;5.80;3.90;;;1.90;99.90;;;;;;5037855;28;20570;-64
2022/12/18 10:25:26;;;;;;;6.30;4.50;;;1.90;99.90;;;;;;5037941;28;20975;-65
2022/12/18 10:27:57;;;;;;;5.97;4.33;;;1.90;99.90;;;;;;5035973;28;20823;-66
2022/12/18 10:30:26;;;;;;;5.53;4.30;;;2.00;99.90;;;;;;5036080;28;20780;-65
2022/12/18 10:32:54;;;;;;;5.23;4.43;;;2.10;99.90;;;;;;5036061;28;20501;-65
2022/12/18 10:35:23;;;;;;;6.87;4.50;;;2.10;99.90;;;;;;5034207;28;21117;-65
2022/12/18 10:38:24;;;;;;;4.77;3.53;;;2.10;99.90;;;;;;5033185;28;20907;-65
2022/12/18 10:40:55;;;;;;;16.87;5.27;;;2.10;99.90;;;;;;4992123;28;20568;-66
2022/12/18 10:43:25;;;;;;;5.73;4.00;;;2.20;99.90;;;;;;5037487;28;20432;-66
2022/12/18 10:46:02;;;;;;;6.27;4.60;;;2.20;99.90;;;;;;5037599;28;20823;-65
2022/12/18 10:48:30;;;;;;;7.67;4.30;;;2.20;99.90;;;;;;5037544;28;20442;-65
2022/12/18 10:50:58;;;;;;;6.00;4.63;;;2.30;99.90;;;;;;5037325;28;20463;-64
2022/12/18 10:53:28;;;;;;;5.13;4.63;;;2.30;99.90;;;;;;5037495;28;20497;-64
2022/12/18 10:56:02;;;;;;;6.30;4.70;;;2.50;99.90;;;;;;5037200;28;20495;-65
2022/12/18 10:58:32;;;;;;;4.80;4.00;;;2.50;99.90;;;;;;5035752;28;20765;-64
2022/12/18 11:01:08;;;;;;;4.97;4.00;;;2.60;99.90;;;;;;5035696;28;20498;-64
2022/12/18 11:03:38;;;;;;;7.67;5.57;;;2.70;99.90;;;;;;5036148;28;20557;-64
2022/12/18 11:06:08;;;;;;;5.87;4.43;;;2.70;99.90;;;;;;5023443;28;20502;-64
2022/12/18 11:08:36;;;;;;;5.07;4.10;;;2.80;99.90;;;;;;5020562;28;20522;-65
2022/12/18 11:11:08;;;;;;;6.27;5.30;;;2.90;99.90;;;;;;5016002;28;21068;-65
2022/12/18 11:13:39;;;;;;;6.60;4.13;;;2.80;99.90;;;;;;5016476;28;20496;-65
2022/12/18 11:16:06;;;;;;;7.57;4.70;;;2.90;99.90;;;;;;5017648;28;20464;-65
2022/12/18 11:18:36;;;;;;;5.87;4.37;;;2.80;99.90;;;;;;5017768;28;20494;-65
2022/12/18 11:21:08;;;;;;;7.30;5.30;;;2.80;99.90;;;;;;5020049;28;20495;-65
2022/12/18 11:23:37;;;;;;;6.73;4.90;;;2.90;99.90;;;;;;5021703;28;20456;-65
2022/12/18 11:26:06;;;;;;;7.00;4.60;;;2.90;99.90;;;;;;5021170;28;20570;-65
2022/12/18 11:28:39;;;;;;;7.90;5.03;;;2.90;99.90;;;;;;5020879;28;20562;-66
2022/12/18 11:31:18;;;;;;;6.57;5.27;;;2.80;99.90;;;;;;5020314;28;20487;-65
2022/12/18 11:33:52;;;;;;;6.90;5.00;;;2.90;99.90;;;;;;5020278;28;20970;-65
2022/12/18 11:36:21;;;;;;;7.00;4.70;;;3.00;99.90;;;;;;5021183;28;20460;-65
2022/12/18 11:38:51;;;;;;;5.63;4.47;;;2.90;99.90;;;;;;5060799;28;20497;-65
2022/12/18 11:42:08;;;;;;;7.97;5.53;;;3.00;99.90;;;;;;5060963;28;20792;-64
2022/12/18 11:44:19;;;;;;;10.03;5.23;;;3.00;99.90;;;;;;5060508;28;20454;-64
2022/12/18 11:46:52;;;;;;;9.37;5.17;;;3.10;99.90;;;;;;5060925;28;20472;-65
2022/12/18 11:49:25;;;;;;;10.83;5.47;;;3.00;99.90;;;;;;5061320;28;20472;-66
2022/12/18 11:51:59;;;;;;;7.73;5.00;;;3.10;99.90;;;;;;5060348;28;20466;-67
2022/12/18 11:54:27;;;;;;;6.50;5.13;;;3.20;99.90;;;;;;5060903;28;20469;-66
2022/12/18 11:57:02;;;;;;;9.23;6.03;;;3.40;99.90;;;;;;5061309;28;20465;-65
2022/12/18 11:59:39;;;;;;;6.43;4.80;;;3.20;99.90;;;;;;5048683;28;20823;-63
2022/12/18 12:02:33;;;;;;;12.07;5.47;;;3.30;99.90;;;;;;5034871;28;20479;-66
2022/12/18 12:05:22;;;;;;;9.50;6.17;;;3.20;99.90;;;;;;5035363;28;20486;-65
2022/12/18 12:08:02;;;;;;;9.33;6.20;;;3.20;99.90;;;;;;5035827;28;20768;-66
2022/12/18 12:10:40;;;;;;;6.97;5.10;;;3.20;99.90;;;;;;5032992;28;20545;-65
2022/12/18 12:13:23;;;;;;;7.70;5.87;;;3.10;99.90;;;;;;5037416;28;20581;-66
2022/12/18 12:16:05;;;;;;;6.67;5.60;;;3.00;99.90;;;;;;5037722;28;20558;-66
2022/12/18 12:18:44;;;;;;;9.10;6.07;;;3.00;99.90;;;;;;5025824;28;20459;-66
2022/12/18 12:21:23;;;;;;;7.33;5.27;;;2.90;99.90;;;;;;5019836;28;20470;-65
2022/12/18 12:23:59;;;;;;;9.50;6.30;;;2.90;99.90;;;;;;5018270;28;20519;-65
2022/12/18 12:26:34;;;;;;;11.73;6.90;;;2.80;99.90;;;;;;5055730;28;20460;-65
2022/12/18 12:29:16;;;;;;;10.90;6.10;;;2.70;99.90;;;;;;5059273;28;20458;-65
2022/12/18 12:31:59;;;;;;;10.07;6.53;;;2.70;99.90;;;;;;5040953;28;20426;-65
2022/12/18 12:34:34;;;;;;;8.43;5.73;;;2.60;99.90;;;;;;5024374;28;20467;-64
2022/12/18 12:37:16;;;;;;;11.13;7.43;;;2.50;99.90;;;;;;5017387;28;20477;-64
2022/12/18 12:39:47;;;;;;;9.30;6.30;;;2.40;99.90;;;;;;5016381;28;20554;-64
2022/12/18 12:45:13;;;;;;;8.73;6.33;;;2.20;99.90;;;;;;5024652;28;20608;-65
2022/12/18 12:47:44;;;;;;;11.10;7.20;;;2.10;99.90;;;;;;5024883;28;20562;-65
2022/12/18 12:50:17;;;;;;;9.20;7.20;;;2.10;99.90;;;;;;5025726;28;20797;-64
2022/12/18 12:52:47;;;;;;;10.37;7.47;;;2.00;99.90;;;;;;5028366;28;20586;-65
2022/12/18 12:55:19;;;;;;;11.20;7.10;;;2.00;99.90;;;;;;5026086;28;20466;-64
2022/12/18 12:57:55;;;;;;;10.97;7.70;;;2.00;99.90;;;;;;5018148;28;20538;-65
2022/12/18 13:00:25;;;;;;;18.80;8.73;;;2.00;99.90;;;;;;5017870;28;20459;-65
2022/12/18 13:03:00;;;;;;;10.90;7.50;;;1.90;99.90;;;;;;5022080;28;20455;-65
2022/12/18 13:05:32;;;;;;;9.40;7.60;;;1.90;99.90;;;;;;5016274;28;20491;-66
2022/12/18 13:08:04;;;;;;;10.27;7.17;;;1.90;99.90;;;;;;5024506;28;20521;-65
2022/12/18 13:10:37;;;;;;;11.93;7.70;;;1.80;99.90;;;;;;5026773;28;20467;-64
2022/12/18 13:13:05;;;;;;;12.13;8.27;;;1.80;99.90;;;;;;5024666;28;20466;-65
2022/12/18 13:15:38;;;;;;;10.93;8.07;;;1.70;99.90;;;;;;5025678;28;20479;-64
2022/12/18 13:18:15;;;;;;;10.10;7.10;;;1.80;99.90;;;;;;5024016;28;20551;-65